sensor_id;sensor_type;location;lat;lon;timestamp;P1;durP1;ratioP1;P2;durP2;ratioP2
60730;SDS011;46580;52.114;11.674;2023-09-12T00:02:10;17.07;;;5.10;;
60730;SDS011;46580;52.114;11.674;2023-09-12T00:04:35;11.20;;;5.47;;
60730;SDS011;46580;52.114;11.674;2023-09-12T00:07:01;7.97;;;4.90;;
60730;SDS011;46580;52.114;11.674;2023-09-12T00:09:27;6.67;;;4.33;;
60730;SDS011;46580;52.114;11.674;2023-09-12T00:11:53;9.30;;;4.93;;
60730;SDS011;46580;52.114;11.674;2023-09-12T00:14:19;11.03;;;5.20;;
60730;SDS011;46580;52.114;11.674;2023-09-12T00:16:45;9.10;;;4.70;;
60730;SDS011;46580;52.114;11.674;2023-09-12T00:19:11;13.30;;;5.13;;
60730;SDS011;46580;52.114;11.674;2023-09-12T00:21:37;8.47;;;4.90;;
60730;SDS011;46580;52.114;11.674;2023-09-12T00:24:02;10.37;;;6.33;;
60730;SDS011;46580;52.114;11.674;2023-09-12T00:26:28;11.90;;;5.03;;
60730;SDS011;46580;52.114;11.674;2023-09-12T00:28:55;12.43;;;5.17;;
60730;SDS011;46580;52.114;11.674;2023-09-12T00:31:21;6.93;;;4.70;;
60730;SDS011;46580;52.114;11.674;2023-09-12T00:33:46;10.67;;;5.10;;
60730;SDS011;46580;52.114;11.674;2023-09-12T00:36:11;10.60;;;5.20;;
60730;SDS011;46580;52.114;11.674;2023-09-12T00:38:37;10.30;;;4.70;;
60730;SDS011;46580;52.114;11.674;2023-09-12T00:41:02;10.17;;;4.53;;
60730;SDS011;46580;52.114;11.674;2023-09-12T00:43:27;13.43;;;4.70;;
60730;SDS011;46580;52.114;11.674;2023-09-12T00:45:53;13.10;;;5.53;;
60730;SDS011;46580;52.114;11.674;2023-09-12T00:48:18;8.57;;;4.87;;
60730;SDS011;46580;52.114;11.674;2023-09-12T00:50:47;11.03;;;4.60;;
60730;SDS011;46580;52.114;11.674;2023-09-12T00:53:14;12.27;;;5.23;;
60730;SDS011;46580;52.114;11.674;2023-09-12T00:55:41;10.53;;;4.70;;
60730;SDS011;46580;52.114;11.674;2023-09-12T00:58:10;11.23;;;5.27;;
60730;SDS011;46580;52.114;11.674;2023-09-12T01:00:36;11.50;;;5.07;;
60730;SDS011;46580;52.114;11.674;2023-09-12T01:03:02;7.43;;;4.67;;
60730;SDS011;46580;52.114;11.674;2023-09-12T01:05:28;6.67;;;4.50;;
60730;SDS011;46580;52.114;11.674;2023-09-12T01:07:53;9.37;;;4.90;;
60730;SDS011;46580;52.114;11.674;2023-09-12T01:10:19;9.47;;;4.90;;
60730;SDS011;46580;52.114;11.674;2023-09-12T01:12:46;8.20;;;4.70;;
60730;SDS011;46580;52.114;11.674;2023-09-12T01:15:11;8.27;;;4.77;;
60730;SDS011;46580;52.114;11.674;2023-09-12T01:17:42;9.33;;;5.10;;
60730;SDS011;46580;52.114;11.674;2023-09-12T01:20:10;7.17;;;4.60;;
60730;SDS011;46580;52.114;11.674;2023-09-12T01:28:16;10.50;;;4.97;;
60730;SDS011;46580;52.114;11.674;2023-09-12T01:30:42;7.77;;;5.30;;
60730;SDS011;46580;52.114;11.674;2023-09-12T01:33:10;12.60;;;4.30;;
60730;SDS011;46580;52.114;11.674;2023-09-12T01:35:36;6.13;;;4.07;;
60730;SDS011;46580;52.114;11.674;2023-09-12T01:38:02;9.73;;;5.20;;
60730;SDS011;46580;52.114;11.674;2023-09-12T01:40:47;6.83;;;4.60;;
60730;SDS011;46580;52.114;11.674;2023-09-12T01:43:18;13.83;;;5.60;;
60730;SDS011;46580;52.114;11.674;2023-09-12T01:45:46;10.43;;;5.17;;
60730;SDS011;46580;52.114;11.674;2023-09-12T01:48:19;13.27;;;5.40;;
60730;SDS011;46580;52.114;11.674;2023-09-12T01:50:45;10.87;;;4.73;;
60730;SDS011;46580;52.114;11.674;2023-09-12T01:53:11;8.73;;;4.37;;
60730;SDS011;46580;52.114;11.674;2023-09-12T01:55:39;12.37;;;4.73;;
60730;SDS011;46580;52.114;11.674;2023-09-12T01:58:06;11.23;;;5.87;;
60730;SDS011;46580;52.114;11.674;2023-09-12T02:00:32;8.30;;;5.00;;
60730;SDS011;46580;52.114;11.674;2023-09-12T02:02:58;11.40;;;4.87;;
60730;SDS011;46580;52.114;11.674;2023-09-12T02:05:23;8.40;;;4.70;;
60730;SDS011;46580;52.114;11.674;2023-09-12T02:07:49;10.97;;;4.77;;
60730;SDS011;46580;52.114;11.674;2023-09-12T02:10:14;7.97;;;5.07;;
60730;SDS011;46580;52.114;11.674;2023-09-12T02:12:40;7.63;;;5.20;;
60730;SDS011;46580;52.114;11.674;2023-09-12T02:15:06;7.60;;;4.93;;
60730;SDS011;46580;52.114;11.674;2023-09-12T02:17:32;7.40;;;5.30;;
60730;SDS011;46580;52.114;11.674;2023-09-12T02:19:58;13.60;;;5.37;;
60730;SDS011;46580;52.114;11.674;2023-09-12T02:22:23;16.87;;;5.80;;
60730;SDS011;46580;52.114;11.674;2023-09-12T02:24:49;8.50;;;5.57;;
60730;SDS011;46580;52.114;11.674;2023-09-12T02:27:15;17.60;;;5.77;;
60730;SDS011;46580;52.114;11.674;2023-09-12T02:29:41;8.90;;;5.17;;
60730;SDS011;46580;52.114;11.674;2023-09-12T02:32:07;13.47;;;5.27;;
60730;SDS011;46580;52.114;11.674;2023-09-12T02:34:33;10.30;;;5.23;;
60730;SDS011;46580;52.114;11.674;2023-09-12T02:36:59;13.70;;;5.80;;
60730;SDS011;46580;52.114;11.674;2023-09-12T02:39:24;8.40;;;5.10;;
60730;SDS011;46580;52.114;11.674;2023-09-12T02:41:50;12.30;;;5.13;;
60730;SDS011;46580;52.114;11.674;2023-09-12T02:44:15;9.27;;;4.97;;
60730;SDS011;46580;52.114;11.674;2023-09-12T02:46:41;8.90;;;5.40;;
60730;SDS011;46580;52.114;11.674;2023-09-12T02:49:06;7.97;;;4.97;;
60730;SDS011;46580;52.114;11.674;2023-09-12T02:51:32;13.73;;;5.77;;
60730;SDS011;46580;52.114;11.674;2023-09-12T02:53:57;12.03;;;5.83;;
60730;SDS011;46580;52.114;11.674;2023-09-12T02:56:22;9.90;;;4.87;;
60730;SDS011;46580;52.114;11.674;2023-09-12T02:58:48;9.87;;;5.10;;
60730;SDS011;46580;52.114;11.674;2023-09-12T03:01:17;10.77;;;5.50;;
60730;SDS011;46580;52.114;11.674;2023-09-12T03:03:47;8.37;;;5.97;;
60730;SDS011;46580;52.114;11.674;2023-09-12T03:06:13;10.60;;;5.27;;
60730;SDS011;46580;52.114;11.674;2023-09-12T03:08:39;8.60;;;6.17;;
60730;SDS011;46580;52.114;11.674;2023-09-12T03:11:05;10.93;;;6.20;;
60730;SDS011;46580;52.114;11.674;2023-09-12T03:13:32;10.97;;;6.17;;
60730;SDS011;46580;52.114;11.674;2023-09-12T03:15:58;12.50;;;5.90;;
60730;SDS011;46580;52.114;11.674;2023-09-12T03:18:23;8.93;;;5.70;;
60730;SDS011;46580;52.114;11.674;2023-09-12T03:20:49;9.60;;;5.43;;
60730;SDS011;46580;52.114;11.674;2023-09-12T03:23:14;12.53;;;5.50;;
60730;SDS011;46580;52.114;11.674;2023-09-12T03:25:40;12.27;;;6.40;;
60730;SDS011;46580;52.114;11.674;2023-09-12T03:28:05;10.43;;;5.93;;
60730;SDS011;46580;52.114;11.674;2023-09-12T03:30:34;13.93;;;6.50;;
60730;SDS011;46580;52.114;11.674;2023-09-12T03:33:01;11.40;;;5.70;;
60730;SDS011;46580;52.114;11.674;2023-09-12T03:35:26;11.73;;;6.60;;
60730;SDS011;46580;52.114;11.674;2023-09-12T03:37:53;11.83;;;6.60;;
60730;SDS011;46580;52.114;11.674;2023-09-12T03:40:19;12.50;;;5.90;;
60730;SDS011;46580;52.114;11.674;2023-09-12T03:42:44;11.37;;;6.20;;
60730;SDS011;46580;52.114;11.674;2023-09-12T03:45:10;12.23;;;6.07;;
60730;SDS011;46580;52.114;11.674;2023-09-12T03:47:36;8.27;;;6.13;;
60730;SDS011;46580;52.114;11.674;2023-09-12T03:50:01;8.67;;;5.63;;
60730;SDS011;46580;52.114;11.674;2023-09-12T03:52:27;7.93;;;5.07;;
60730;SDS011;46580;52.114;11.674;2023-09-12T03:54:53;13.00;;;6.67;;
60730;SDS011;46580;52.114;11.674;2023-09-12T03:57:18;13.07;;;6.80;;
60730;SDS011;46580;52.114;11.674;2023-09-12T03:59:44;11.97;;;6.20;;
60730;SDS011;46580;52.114;11.674;2023-09-12T04:02:11;7.83;;;5.80;;
60730;SDS011;46580;52.114;11.674;2023-09-12T04:04:37;7.23;;;5.73;;
60730;SDS011;46580;52.114;11.674;2023-09-12T04:07:03;10.07;;;6.40;;
60730;SDS011;46580;52.114;11.674;2023-09-12T04:09:28;14.57;;;5.77;;
60730;SDS011;46580;52.114;11.674;2023-09-12T04:11:54;9.40;;;6.03;;
60730;SDS011;46580;52.114;11.674;2023-09-12T04:14:20;11.73;;;5.80;;
60730;SDS011;46580;52.114;11.674;2023-09-12T04:16:46;9.67;;;5.77;;
60730;SDS011;46580;52.114;11.674;2023-09-12T04:19:11;9.67;;;5.80;;
60730;SDS011;46580;52.114;11.674;2023-09-12T04:21:38;9.87;;;5.90;;
60730;SDS011;46580;52.114;11.674;2023-09-12T04:24:04;11.57;;;5.90;;
60730;SDS011;46580;52.114;11.674;2023-09-12T04:26:32;10.97;;;6.67;;
60730;SDS011;46580;52.114;11.674;2023-09-12T04:28:57;12.40;;;6.07;;
60730;SDS011;46580;52.114;11.674;2023-09-12T04:31:22;12.97;;;5.97;;
60730;SDS011;46580;52.114;11.674;2023-09-12T04:33:50;9.97;;;6.00;;
60730;SDS011;46580;52.114;11.674;2023-09-12T04:36:16;9.70;;;5.40;;
60730;SDS011;46580;52.114;11.674;2023-09-12T04:38:42;10.57;;;6.17;;
60730;SDS011;46580;52.114;11.674;2023-09-12T04:41:08;13.10;;;7.23;;
60730;SDS011;46580;52.114;11.674;2023-09-12T04:43:33;14.37;;;6.73;;
60730;SDS011;46580;52.114;11.674;2023-09-12T04:45:59;15.27;;;6.90;;
60730;SDS011;46580;52.114;11.674;2023-09-12T04:48:24;13.30;;;6.53;;
60730;SDS011;46580;52.114;11.674;2023-09-12T04:50:50;10.87;;;6.33;;
60730;SDS011;46580;52.114;11.674;2023-09-12T04:53:15;12.30;;;6.67;;
60730;SDS011;46580;52.114;11.674;2023-09-12T04:55:40;11.17;;;6.00;;
60730;SDS011;46580;52.114;11.674;2023-09-12T04:58:06;14.17;;;6.30;;
60730;SDS011;46580;52.114;11.674;2023-09-12T05:00:35;10.20;;;6.23;;
60730;SDS011;46580;52.114;11.674;2023-09-12T05:03:01;8.40;;;5.83;;
60730;SDS011;46580;52.114;11.674;2023-09-12T05:05:28;10.47;;;5.70;;
60730;SDS011;46580;52.114;11.674;2023-09-12T05:07:54;11.47;;;6.47;;
60730;SDS011;46580;52.114;11.674;2023-09-12T05:10:19;13.63;;;6.87;;
60730;SDS011;46580;52.114;11.674;2023-09-12T05:12:45;10.17;;;6.87;;
60730;SDS011;46580;52.114;11.674;2023-09-12T05:15:10;14.80;;;7.00;;
60730;SDS011;46580;52.114;11.674;2023-09-12T05:17:36;13.97;;;7.50;;
60730;SDS011;46580;52.114;11.674;2023-09-12T05:20:02;15.30;;;6.47;;
60730;SDS011;46580;52.114;11.674;2023-09-12T05:22:29;13.43;;;6.93;;
60730;SDS011;46580;52.114;11.674;2023-09-12T05:24:55;14.10;;;6.70;;
60730;SDS011;46580;52.114;11.674;2023-09-12T05:27:20;16.60;;;7.00;;
60730;SDS011;46580;52.114;11.674;2023-09-12T05:29:46;13.20;;;7.03;;
60730;SDS011;46580;52.114;11.674;2023-09-12T05:32:11;10.20;;;6.43;;
60730;SDS011;46580;52.114;11.674;2023-09-12T05:34:37;16.17;;;6.87;;
60730;SDS011;46580;52.114;11.674;2023-09-12T05:37:02;12.83;;;6.53;;
60730;SDS011;46580;52.114;11.674;2023-09-12T05:39:28;7.77;;;6.50;;
60730;SDS011;46580;52.114;11.674;2023-09-12T05:41:53;13.57;;;6.87;;
60730;SDS011;46580;52.114;11.674;2023-09-12T05:44:18;14.50;;;7.00;;
60730;SDS011;46580;52.114;11.674;2023-09-12T05:46:45;13.37;;;7.07;;
60730;SDS011;46580;52.114;11.674;2023-09-12T05:49:11;14.20;;;7.03;;
60730;SDS011;46580;52.114;11.674;2023-09-12T05:51:37;17.20;;;7.60;;
60730;SDS011;46580;52.114;11.674;2023-09-12T05:54:02;14.73;;;7.93;;
60730;SDS011;46580;52.114;11.674;2023-09-12T05:56:28;16.90;;;7.67;;
60730;SDS011;46580;52.114;11.674;2023-09-12T05:58:54;22.30;;;7.87;;
60730;SDS011;46580;52.114;11.674;2023-09-12T06:01:19;12.80;;;7.73;;
60730;SDS011;46580;52.114;11.674;2023-09-12T06:03:45;11.30;;;7.77;;
60730;SDS011;46580;52.114;11.674;2023-09-12T06:06:10;13.40;;;7.73;;
60730;SDS011;46580;52.114;11.674;2023-09-12T06:08:36;12.40;;;8.53;;
60730;SDS011;46580;52.114;11.674;2023-09-12T06:11:02;15.53;;;9.87;;
60730;SDS011;46580;52.114;11.674;2023-09-12T06:13:28;19.27;;;10.97;;
60730;SDS011;46580;52.114;11.674;2023-09-12T06:15:53;18.43;;;11.40;;
60730;SDS011;46580;52.114;11.674;2023-09-12T06:18:18;24.07;;;11.23;;
60730;SDS011;46580;52.114;11.674;2023-09-12T06:20:44;18.90;;;10.63;;
60730;SDS011;46580;52.114;11.674;2023-09-12T06:23:10;17.40;;;10.70;;
60730;SDS011;46580;52.114;11.674;2023-09-12T06:25:35;21.47;;;10.60;;
60730;SDS011;46580;52.114;11.674;2023-09-12T06:28:01;22.47;;;11.03;;
60730;SDS011;46580;52.114;11.674;2023-09-12T06:30:26;18.60;;;11.30;;
60730;SDS011;46580;52.114;11.674;2023-09-12T06:32:51;21.23;;;11.40;;
60730;SDS011;46580;52.114;11.674;2023-09-12T06:35:17;17.00;;;9.80;;
60730;SDS011;46580;52.114;11.674;2023-09-12T06:37:43;17.20;;;11.00;;
60730;SDS011;46580;52.114;11.674;2023-09-12T06:40:09;17.33;;;10.30;;
60730;SDS011;46580;52.114;11.674;2023-09-12T06:42:34;22.10;;;10.57;;
60730;SDS011;46580;52.114;11.674;2023-09-12T06:45:00;19.17;;;10.47;;
60730;SDS011;46580;52.114;11.674;2023-09-12T06:47:26;15.97;;;10.13;;
60730;SDS011;46580;52.114;11.674;2023-09-12T06:49:51;22.80;;;10.07;;
60730;SDS011;46580;52.114;11.674;2023-09-12T06:52:16;20.70;;;10.17;;
60730;SDS011;46580;52.114;11.674;2023-09-12T06:54:42;13.23;;;10.30;;
60730;SDS011;46580;52.114;11.674;2023-09-12T06:57:07;16.57;;;10.13;;
60730;SDS011;46580;52.114;11.674;2023-09-12T06:59:33;15.87;;;10.43;;
60730;SDS011;46580;52.114;11.674;2023-09-12T07:01:58;15.57;;;10.23;;
60730;SDS011;46580;52.114;11.674;2023-09-12T07:04:23;16.80;;;9.00;;
60730;SDS011;46580;52.114;11.674;2023-09-12T07:06:49;14.83;;;9.20;;
60730;SDS011;46580;52.114;11.674;2023-09-12T07:09:16;12.90;;;8.67;;
60730;SDS011;46580;52.114;11.674;2023-09-12T07:11:41;15.87;;;8.63;;
60730;SDS011;46580;52.114;11.674;2023-09-12T07:14:07;14.13;;;8.73;;
60730;SDS011;46580;52.114;11.674;2023-09-12T07:16:36;16.97;;;9.07;;
60730;SDS011;46580;52.114;11.674;2023-09-12T07:19:04;18.53;;;8.97;;
60730;SDS011;46580;52.114;11.674;2023-09-12T07:21:30;16.43;;;8.97;;
60730;SDS011;46580;52.114;11.674;2023-09-12T07:23:56;14.50;;;8.57;;
60730;SDS011;46580;52.114;11.674;2023-09-12T07:26:22;11.67;;;8.60;;
60730;SDS011;46580;52.114;11.674;2023-09-12T07:28:47;15.67;;;8.70;;
60730;SDS011;46580;52.114;11.674;2023-09-12T07:31:13;17.50;;;9.23;;
60730;SDS011;46580;52.114;11.674;2023-09-12T07:33:39;15.90;;;8.53;;
60730;SDS011;46580;52.114;11.674;2023-09-12T07:36:06;17.57;;;8.20;;
60730;SDS011;46580;52.114;11.674;2023-09-12T07:38:31;14.73;;;7.87;;
60730;SDS011;46580;52.114;11.674;2023-09-12T07:40:57;14.30;;;7.97;;
60730;SDS011;46580;52.114;11.674;2023-09-12T07:43:23;13.43;;;7.37;;
60730;SDS011;46580;52.114;11.674;2023-09-12T07:45:48;11.57;;;6.67;;
60730;SDS011;46580;52.114;11.674;2023-09-12T07:48:14;12.90;;;5.80;;
60730;SDS011;46580;52.114;11.674;2023-09-12T07:50:40;11.50;;;6.03;;
60730;SDS011;46580;52.114;11.674;2023-09-12T07:53:06;6.30;;;5.67;;
60730;SDS011;46580;52.114;11.674;2023-09-12T07:55:32;7.10;;;5.80;;
60730;SDS011;46580;52.114;11.674;2023-09-12T07:58:05;9.67;;;6.27;;
60730;SDS011;46580;52.114;11.674;2023-09-12T08:00:31;18.60;;;5.73;;
60730;SDS011;46580;52.114;11.674;2023-09-12T08:02:56;9.00;;;5.20;;
60730;SDS011;46580;52.114;11.674;2023-09-12T08:05:22;8.00;;;5.63;;
60730;SDS011;46580;52.114;11.674;2023-09-12T08:07:47;12.00;;;6.40;;
60730;SDS011;46580;52.114;11.674;2023-09-12T08:10:12;7.67;;;5.03;;
60730;SDS011;46580;52.114;11.674;2023-09-12T08:12:38;7.83;;;5.33;;
60730;SDS011;46580;52.114;11.674;2023-09-12T08:15:03;7.43;;;4.90;;
60730;SDS011;46580;52.114;11.674;2023-09-12T08:17:29;8.07;;;4.63;;
60730;SDS011;46580;52.114;11.674;2023-09-12T08:19:55;6.43;;;4.67;;
60730;SDS011;46580;52.114;11.674;2023-09-12T08:22:20;6.80;;;4.43;;
60730;SDS011;46580;52.114;11.674;2023-09-12T08:24:46;10.03;;;4.67;;
60730;SDS011;46580;52.114;11.674;2023-09-12T08:27:11;8.27;;;4.10;;
60730;SDS011;46580;52.114;11.674;2023-09-12T08:29:37;5.87;;;3.70;;
60730;SDS011;46580;52.114;11.674;2023-09-12T08:32:03;5.03;;;4.00;;
60730;SDS011;46580;52.114;11.674;2023-09-12T08:34:29;9.07;;;3.50;;
60730;SDS011;46580;52.114;11.674;2023-09-12T08:36:54;7.27;;;4.20;;
60730;SDS011;46580;52.114;11.674;2023-09-12T08:39:23;6.13;;;3.93;;
60730;SDS011;46580;52.114;11.674;2023-09-12T08:41:50;5.80;;;3.87;;
60730;SDS011;46580;52.114;11.674;2023-09-12T08:44:16;5.90;;;4.00;;
60730;SDS011;46580;52.114;11.674;2023-09-12T08:46:41;8.03;;;3.93;;
60730;SDS011;46580;52.114;11.674;2023-09-12T08:49:07;10.63;;;3.90;;
60730;SDS011;46580;52.114;11.674;2023-09-12T08:51:34;5.10;;;3.57;;
60730;SDS011;46580;52.114;11.674;2023-09-12T08:54:00;5.17;;;3.97;;
60730;SDS011;46580;52.114;11.674;2023-09-12T08:56:28;5.53;;;3.77;;
60730;SDS011;46580;52.114;11.674;2023-09-12T08:58:55;4.87;;;3.40;;
60730;SDS011;46580;52.114;11.674;2023-09-12T09:01:22;8.03;;;3.67;;
60730;SDS011;46580;52.114;11.674;2023-09-12T09:03:47;3.90;;;3.23;;
60730;SDS011;46580;52.114;11.674;2023-09-12T09:06:13;3.50;;;2.90;;
60730;SDS011;46580;52.114;11.674;2023-09-12T09:08:41;3.57;;;2.50;;
60730;SDS011;46580;52.114;11.674;2023-09-12T09:11:08;2.93;;;2.63;;
60730;SDS011;46580;52.114;11.674;2023-09-12T09:13:35;3.27;;;2.60;;
60730;SDS011;46580;52.114;11.674;2023-09-12T09:16:14;3.63;;;2.70;;
60730;SDS011;46580;52.114;11.674;2023-09-12T09:18:52;3.70;;;2.77;;
60730;SDS011;46580;52.114;11.674;2023-09-12T09:21:26;3.30;;;2.70;;
60730;SDS011;46580;52.114;11.674;2023-09-12T09:23:57;4.87;;;2.23;;
60730;SDS011;46580;52.114;11.674;2023-09-12T09:26:24;5.83;;;2.47;;
60730;SDS011;46580;52.114;11.674;2023-09-12T09:29:02;5.40;;;2.93;;
60730;SDS011;46580;52.114;11.674;2023-09-12T09:31:31;4.77;;;2.60;;
60730;SDS011;46580;52.114;11.674;2023-09-12T09:33:58;2.80;;;2.47;;
60730;SDS011;46580;52.114;11.674;2023-09-12T09:36:24;2.63;;;2.43;;
60730;SDS011;46580;52.114;11.674;2023-09-12T09:38:50;5.83;;;2.53;;
60730;SDS011;46580;52.114;11.674;2023-09-12T09:41:19;5.30;;;2.10;;
60730;SDS011;46580;52.114;11.674;2023-09-12T09:43:45;4.00;;;2.13;;
60730;SDS011;46580;52.114;11.674;2023-09-12T09:46:14;3.63;;;2.70;;
60730;SDS011;46580;52.114;11.674;2023-09-12T09:48:40;3.13;;;2.17;;
60730;SDS011;46580;52.114;11.674;2023-09-12T09:51:14;3.93;;;2.53;;
60730;SDS011;46580;52.114;11.674;2023-09-12T09:53:39;2.27;;;1.90;;
60730;SDS011;46580;52.114;11.674;2023-09-12T09:58:33;2.00;;;1.63;;
60730;SDS011;46580;52.114;11.674;2023-09-12T10:00:59;4.40;;;1.90;;
60730;SDS011;46580;52.114;11.674;2023-09-12T10:03:26;8.00;;;1.70;;
60730;SDS011;46580;52.114;11.674;2023-09-12T10:05:53;3.17;;;1.73;;
60730;SDS011;46580;52.114;11.674;2023-09-12T10:08:22;1.67;;;1.40;;
60730;SDS011;46580;52.114;11.674;2023-09-12T10:10:49;3.57;;;1.67;;
60730;SDS011;46580;52.114;11.674;2023-09-12T10:13:16;2.37;;;1.60;;
60730;SDS011;46580;52.114;11.674;2023-09-12T10:15:44;4.47;;;1.77;;
60730;SDS011;46580;52.114;11.674;2023-09-12T10:18:11;1.80;;;1.60;;
60730;SDS011;46580;52.114;11.674;2023-09-12T10:20:53;2.00;;;1.80;;
60730;SDS011;46580;52.114;11.674;2023-09-12T10:23:27;2.67;;;1.50;;
60730;SDS011;46580;52.114;11.674;2023-09-12T10:25:58;2.77;;;1.70;;
60730;SDS011;46580;52.114;11.674;2023-09-12T10:28:24;3.40;;;1.83;;
60730;SDS011;46580;52.114;11.674;2023-09-12T10:30:50;2.63;;;1.63;;
60730;SDS011;46580;52.114;11.674;2023-09-12T10:33:17;3.93;;;2.00;;
60730;SDS011;46580;52.114;11.674;2023-09-12T10:35:44;7.17;;;2.23;;
60730;SDS011;46580;52.114;11.674;2023-09-12T10:38:11;4.87;;;2.00;;
60730;SDS011;46580;52.114;11.674;2023-09-12T10:40:39;3.67;;;1.80;;
60730;SDS011;46580;52.114;11.674;2023-09-12T10:43:05;3.90;;;2.30;;
60730;SDS011;46580;52.114;11.674;2023-09-12T10:45:34;3.60;;;2.20;;
60730;SDS011;46580;52.114;11.674;2023-09-12T10:48:02;4.77;;;2.20;;
60730;SDS011;46580;52.114;11.674;2023-09-12T10:50:28;4.83;;;2.40;;
60730;SDS011;46580;52.114;11.674;2023-09-12T10:52:54;2.53;;;2.10;;
60730;SDS011;46580;52.114;11.674;2023-09-12T10:55:19;3.10;;;2.53;;
60730;SDS011;46580;52.114;11.674;2023-09-12T10:58:04;3.10;;;2.20;;
60730;SDS011;46580;52.114;11.674;2023-09-12T11:00:30;4.00;;;2.20;;
60730;SDS011;46580;52.114;11.674;2023-09-12T11:03:00;5.27;;;2.10;;
60730;SDS011;46580;52.114;11.674;2023-09-12T11:05:53;7.83;;;2.73;;
60730;SDS011;46580;52.114;11.674;2023-09-12T11:08:20;5.07;;;2.10;;
60730;SDS011;46580;52.114;11.674;2023-09-12T11:13:46;9.53;;;2.30;;
60730;SDS011;46580;52.114;11.674;2023-09-12T11:16:13;3.17;;;2.03;;
60730;SDS011;46580;52.114;11.674;2023-09-12T11:19:42;5.03;;;2.47;;
60730;SDS011;46580;52.114;11.674;2023-09-12T11:21:37;7.60;;;2.40;;
60730;SDS011;46580;52.114;11.674;2023-09-12T11:24:02;3.67;;;2.20;;
60730;SDS011;46580;52.114;11.674;2023-09-12T11:26:29;3.63;;;2.40;;
60730;SDS011;46580;52.114;11.674;2023-09-12T11:28:54;8.07;;;2.47;;
60730;SDS011;46580;52.114;11.674;2023-09-12T11:31:26;7.47;;;2.33;;
60730;SDS011;46580;52.114;11.674;2023-09-12T11:33:52;5.47;;;2.30;;
60730;SDS011;46580;52.114;11.674;2023-09-12T11:36:18;4.20;;;2.37;;
60730;SDS011;46580;52.114;11.674;2023-09-12T11:38:44;4.97;;;2.63;;
60730;SDS011;46580;52.114;11.674;2023-09-12T11:41:14;5.40;;;2.80;;
60730;SDS011;46580;52.114;11.674;2023-09-12T11:44:06;4.60;;;2.30;;
60730;SDS011;46580;52.114;11.674;2023-09-12T11:46:32;7.47;;;2.57;;
60730;SDS011;46580;52.114;11.674;2023-09-12T11:48:57;6.53;;;2.67;;
60730;SDS011;46580;52.114;11.674;2023-09-12T11:51:26;2.90;;;2.60;;
60730;SDS011;46580;52.114;11.674;2023-09-12T11:53:52;4.97;;;2.70;;
60730;SDS011;46580;52.114;11.674;2023-09-12T11:56:18;3.10;;;2.20;;
60730;SDS011;46580;52.114;11.674;2023-09-12T11:58:44;5.60;;;2.23;;
60730;SDS011;46580;52.114;11.674;2023-09-12T12:01:11;4.97;;;2.73;;
60730;SDS011;46580;52.114;11.674;2023-09-12T12:03:37;3.60;;;1.90;;
60730;SDS011;46580;52.114;11.674;2023-09-12T12:08:50;3.90;;;2.10;;
60730;SDS011;46580;52.114;11.674;2023-09-12T12:11:19;3.67;;;2.10;;
60730;SDS011;46580;52.114;11.674;2023-09-12T12:13:45;3.37;;;2.40;;
60730;SDS011;46580;52.114;11.674;2023-09-12T12:16:19;3.20;;;2.00;;
60730;SDS011;46580;52.114;11.674;2023-09-12T12:18:44;5.63;;;2.30;;
60730;SDS011;46580;52.114;11.674;2023-09-12T12:21:10;3.87;;;2.10;;
60730;SDS011;46580;52.114;11.674;2023-09-12T12:23:36;4.17;;;2.33;;
60730;SDS011;46580;52.114;11.674;2023-09-12T12:26:08;4.90;;;2.07;;
60730;SDS011;46580;52.114;11.674;2023-09-12T12:28:37;4.00;;;2.07;;
60730;SDS011;46580;52.114;11.674;2023-09-12T12:31:02;4.43;;;2.10;;
60730;SDS011;46580;52.114;11.674;2023-09-12T12:33:28;4.27;;;2.00;;
60730;SDS011;46580;52.114;11.674;2023-09-12T12:36:03;2.90;;;2.00;;
60730;SDS011;46580;52.114;11.674;2023-09-12T12:38:36;7.47;;;2.30;;
60730;SDS011;46580;52.114;11.674;2023-09-12T12:41:03;5.57;;;2.47;;
60730;SDS011;46580;52.114;11.674;2023-09-12T12:43:29;4.37;;;2.60;;
60730;SDS011;46580;52.114;11.674;2023-09-12T12:45:56;4.87;;;2.60;;
60730;SDS011;46580;52.114;11.674;2023-09-12T12:48:32;3.23;;;2.50;;
60730;SDS011;46580;52.114;11.674;2023-09-12T12:50:59;4.80;;;2.27;;
60730;SDS011;46580;52.114;11.674;2023-09-12T12:53:40;3.00;;;2.67;;
60730;SDS011;46580;52.114;11.674;2023-09-12T12:56:06;4.63;;;2.30;;
60730;SDS011;46580;52.114;11.674;2023-09-12T12:58:32;5.77;;;2.77;;
60730;SDS011;46580;52.114;11.674;2023-09-12T13:00:58;3.70;;;2.27;;
60730;SDS011;46580;52.114;11.674;2023-09-12T13:03:24;3.20;;;2.20;;
60730;SDS011;46580;52.114;11.674;2023-09-12T13:05:49;2.93;;;2.20;;
60730;SDS011;46580;52.114;11.674;2023-09-12T13:08:14;5.77;;;2.73;;
60730;SDS011;46580;52.114;11.674;2023-09-12T13:10:40;3.43;;;2.17;;
60730;SDS011;46580;52.114;11.674;2023-09-12T13:13:07;2.23;;;2.03;;
60730;SDS011;46580;52.114;11.674;2023-09-12T13:15:33;2.50;;;1.90;;
60730;SDS011;46580;52.114;11.674;2023-09-12T13:17:58;2.87;;;1.90;;
60730;SDS011;46580;52.114;11.674;2023-09-12T13:20:24;2.80;;;1.83;;
60730;SDS011;46580;52.114;11.674;2023-09-12T13:22:49;2.83;;;1.90;;
60730;SDS011;46580;52.114;11.674;2023-09-12T13:25:15;3.30;;;1.67;;
60730;SDS011;46580;52.114;11.674;2023-09-12T13:27:40;3.40;;;1.80;;
60730;SDS011;46580;52.114;11.674;2023-09-12T13:30:06;7.40;;;1.80;;
60730;SDS011;46580;52.114;11.674;2023-09-12T13:32:31;3.43;;;1.40;;
60730;SDS011;46580;52.114;11.674;2023-09-12T13:34:58;3.50;;;1.20;;
60730;SDS011;46580;52.114;11.674;2023-09-12T13:37:23;1.30;;;0.90;;
60730;SDS011;46580;52.114;11.674;2023-09-12T13:39:49;2.43;;;1.20;;
60730;SDS011;46580;52.114;11.674;2023-09-12T13:42:15;1.50;;;1.00;;
60730;SDS011;46580;52.114;11.674;2023-09-12T13:44:45;1.10;;;1.00;;
60730;SDS011;46580;52.114;11.674;2023-09-12T13:47:11;4.30;;;1.20;;
60730;SDS011;46580;52.114;11.674;2023-09-12T13:49:37;3.10;;;1.10;;
60730;SDS011;46580;52.114;11.674;2023-09-12T13:52:03;1.40;;;1.00;;
60730;SDS011;46580;52.114;11.674;2023-09-12T13:54:28;2.13;;;0.90;;
60730;SDS011;46580;52.114;11.674;2023-09-12T13:56:54;1.07;;;0.90;;
60730;SDS011;46580;52.114;11.674;2023-09-12T13:59:19;1.47;;;0.90;;
60730;SDS011;46580;52.114;11.674;2023-09-12T14:01:45;1.00;;;0.90;;
60730;SDS011;46580;52.114;11.674;2023-09-12T14:04:11;1.00;;;0.90;;
60730;SDS011;46580;52.114;11.674;2023-09-12T14:06:38;2.23;;;1.00;;
60730;SDS011;46580;52.114;11.674;2023-09-12T14:09:04;1.13;;;0.70;;
60730;SDS011;46580;52.114;11.674;2023-09-12T14:11:30;1.80;;;1.30;;
60730;SDS011;46580;52.114;11.674;2023-09-12T14:13:56;1.07;;;0.97;;
60730;SDS011;46580;52.114;11.674;2023-09-12T14:16:21;1.33;;;1.07;;
60730;SDS011;46580;52.114;11.674;2023-09-12T14:18:47;2.50;;;1.27;;
60730;SDS011;46580;52.114;11.674;2023-09-12T14:21:12;1.30;;;1.17;;
60730;SDS011;46580;52.114;11.674;2023-09-12T14:23:38;3.03;;;1.17;;
60730;SDS011;46580;52.114;11.674;2023-09-12T14:26:03;1.83;;;1.07;;
60730;SDS011;46580;52.114;11.674;2023-09-12T14:28:29;1.37;;;1.17;;
60730;SDS011;46580;52.114;11.674;2023-09-12T14:30:57;1.40;;;1.20;;
60730;SDS011;46580;52.114;11.674;2023-09-12T14:33:22;1.40;;;1.00;;
60730;SDS011;46580;52.114;11.674;2023-09-12T14:35:48;2.90;;;1.50;;
60730;SDS011;46580;52.114;11.674;2023-09-12T14:38:13;2.83;;;1.33;;
60730;SDS011;46580;52.114;11.674;2023-09-12T14:40:38;2.90;;;1.30;;